sensor_id;sensor_type;location;lat;lon;timestamp;temperature;humidity
59234;DHT22;60776;51.702;7.462;2023-10-08T00:01:44;19.90;99.90
59234;DHT22;60776;51.702;7.462;2023-10-08T00:04:13;19.90;99.90
59234;DHT22;60776;51.702;7.462;2023-10-08T00:06:47;19.90;99.90
59234;DHT22;60776;51.702;7.462;2023-10-08T00:09:15;19.90;99.90
59234;DHT22;60776;51.702;7.462;2023-10-08T00:11:41;19.90;99.90
59234;DHT22;60776;51.702;7.462;2023-10-08T00:14:07;19.90;99.90
59234;DHT22;60776;51.702;7.462;2023-10-08T00:16:36;19.90;99.90
59234;DHT22;60776;51.702;7.462;2023-10-08T00:19:07;19.90;99.90
59234;DHT22;60776;51.702;7.462;2023-10-08T00:21:36;19.90;99.90
59234;DHT22;60776;51.702;7.462;2023-10-08T00:24:03;19.90;99.90
59234;DHT22;60776;51.702;7.462;2023-10-08T00:26:39;19.80;99.90
59234;DHT22;60776;51.702;7.462;2023-10-08T00:29:11;19.90;99.90
59234;DHT22;60776;51.702;7.462;2023-10-08T00:31:47;19.90;99.90
59234;DHT22;60776;51.702;7.462;2023-10-08T00:34:15;19.90;99.90
59234;DHT22;60776;51.702;7.462;2023-10-08T00:36:48;19.90;99.90
59234;DHT22;60776;51.702;7.462;2023-10-08T00:39:17;19.90;99.90
59234;DHT22;60776;51.702;7.462;2023-10-08T00:41:50;19.80;99.90
59234;DHT22;60776;51.702;7.462;2023-10-08T00:44:24;19.80;99.90
59234;DHT22;60776;51.702;7.462;2023-10-08T00:46:59;19.80;99.90
59234;DHT22;60776;51.702;7.462;2023-10-08T00:49:27;19.80;99.90
59234;DHT22;60776;51.702;7.462;2023-10-08T00:52:14;19.80;99.90
59234;DHT22;60776;51.702;7.462;2023-10-08T00:54:42;19.80;99.90
59234;DHT22;60776;51.702;7.462;2023-10-08T00:57:30;19.70;99.90
59234;DHT22;60776;51.702;7.462;2023-10-08T00:59:59;19.70;99.90
59234;DHT22;60776;51.702;7.462;2023-10-08T01:02:28;19.70;99.90
59234;DHT22;60776;51.702;7.462;2023-10-08T01:05:17;19.70;99.90
59234;DHT22;60776;51.702;7.462;2023-10-08T01:07:50;19.70;99.90
59234;DHT22;60776;51.702;7.462;2023-10-08T01:10:19;19.70;99.90
59234;DHT22;60776;51.702;7.462;2023-10-08T01:12:53;19.60;99.90
59234;DHT22;60776;51.702;7.462;2023-10-08T01:15:42;19.60;99.90
59234;DHT22;60776;51.702;7.462;2023-10-08T01:18:10;19.60;99.90
59234;DHT22;60776;51.702;7.462;2023-10-08T01:20:44;19.60;99.90
59234;DHT22;60776;51.702;7.462;2023-10-08T01:23:12;19.60;99.90
59234;DHT22;60776;51.702;7.462;2023-10-08T01:25:47;19.60;99.90
59234;DHT22;60776;51.702;7.462;2023-10-08T01:28:35;19.70;99.90
59234;DHT22;60776;51.702;7.462;2023-10-08T01:31:01;19.70;99.90
59234;DHT22;60776;51.702;7.462;2023-10-08T01:33:31;19.80;99.90
59234;DHT22;60776;51.702;7.462;2023-10-08T01:35:57;19.80;99.90
59234;DHT22;60776;51.702;7.462;2023-10-08T01:38:32;19.80;99.90
59234;DHT22;60776;51.702;7.462;2023-10-08T01:41:00;19.90;99.90
59234;DHT22;60776;51.702;7.462;2023-10-08T01:43:31;19.80;99.90
59234;DHT22;60776;51.702;7.462;2023-10-08T01:45:57;19.80;99.90
59234;DHT22;60776;51.702;7.462;2023-10-08T01:48:25;19.80;99.90
59234;DHT22;60776;51.702;7.462;2023-10-08T01:51:03;19.90;99.90
59234;DHT22;60776;51.702;7.462;2023-10-08T01:53:37;19.80;99.90
59234;DHT22;60776;51.702;7.462;2023-10-08T01:56:15;19.80;99.90
59234;DHT22;60776;51.702;7.462;2023-10-08T01:58:45;19.90;99.90
59234;DHT22;60776;51.702;7.462;2023-10-08T02:01:22;19.90;99.90
59234;DHT22;60776;51.702;7.462;2023-10-08T02:03:47;19.90;99.90
59234;DHT22;60776;51.702;7.462;2023-10-08T02:06:13;19.80;99.90
59234;DHT22;60776;51.702;7.462;2023-10-08T02:08:39;19.80;99.90
59234;DHT22;60776;51.702;7.462;2023-10-08T02:11:07;19.80;99.90
59234;DHT22;60776;51.702;7.462;2023-10-08T02:13:41;19.90;99.90
59234;DHT22;60776;51.702;7.462;2023-10-08T02:16:18;19.80;99.90
59234;DHT22;60776;51.702;7.462;2023-10-08T02:18:43;19.80;99.90
59234;DHT22;60776;51.702;7.462;2023-10-08T02:21:17;19.70;99.90
59234;DHT22;60776;51.702;7.462;2023-10-08T02:23:46;19.70;99.90
59234;DHT22;60776;51.702;7.462;2023-10-08T02:26:19;19.70;99.90
59234;DHT22;60776;51.702;7.462;2023-10-08T02:28:47;19.50;99.90
59234;DHT22;60776;51.702;7.462;2023-10-08T02:31:19;19.50;99.90
59234;DHT22;60776;51.702;7.462;2023-10-08T02:33:53;19.50;99.90
59234;DHT22;60776;51.702;7.462;2023-10-08T02:36:21;19.50;99.90
59234;DHT22;60776;51.702;7.462;2023-10-08T02:38:55;19.50;99.90
59234;DHT22;60776;51.702;7.462;2023-10-08T02:41:25;19.50;99.90
59234;DHT22;60776;51.702;7.462;2023-10-08T02:43:58;19.60;99.90
59234;DHT22;60776;51.702;7.462;2023-10-08T02:46:31;19.60;99.90
59234;DHT22;60776;51.702;7.462;2023-10-08T02:48:58;19.70;99.90
59234;DHT22;60776;51.702;7.462;2023-10-08T02:51:26;19.60;99.90
59234;DHT22;60776;51.702;7.462;2023-10-08T02:53:54;19.60;99.90
59234;DHT22;60776;51.702;7.462;2023-10-08T02:56:20;19.70;99.90
59234;DHT22;60776;51.702;7.462;2023-10-08T02:58:47;19.70;99.90
59234;DHT22;60776;51.702;7.462;2023-10-08T03:01:13;19.70;99.90
59234;DHT22;60776;51.702;7.462;2023-10-08T03:03:41;19.70;99.90
59234;DHT22;60776;51.702;7.462;2023-10-08T03:06:07;19.70;99.90
59234;DHT22;60776;51.702;7.462;2023-10-08T03:08:39;19.70;99.90
59234;DHT22;60776;51.702;7.462;2023-10-08T03:11:10;19.70;99.90
59234;DHT22;60776;51.702;7.462;2023-10-08T03:13:46;19.70;99.90
59234;DHT22;60776;51.702;7.462;2023-10-08T03:16:15;19.70;99.90
59234;DHT22;60776;51.702;7.462;2023-10-08T03:18:49;19.70;99.90
59234;DHT22;60776;51.702;7.462;2023-10-08T03:21:18;19.60;99.90
59234;DHT22;60776;51.702;7.462;2023-10-08T03:23:47;19.60;99.90
59234;DHT22;60776;51.702;7.462;2023-10-08T03:26:16;19.50;99.90
59234;DHT22;60776;51.702;7.462;2023-10-08T03:28:57;19.60;99.90
59234;DHT22;60776;51.702;7.462;2023-10-08T03:31:25;19.50;99.90
59234;DHT22;60776;51.702;7.462;2023-10-08T03:34:11;19.50;99.90
59234;DHT22;60776;51.702;7.462;2023-10-08T03:36:41;19.50;99.90
59234;DHT22;60776;51.702;7.462;2023-10-08T03:39:14;19.50;99.90
59234;DHT22;60776;51.702;7.462;2023-10-08T03:41:43;19.50;99.90
59234;DHT22;60776;51.702;7.462;2023-10-08T03:44:17;19.60;99.90
59234;DHT22;60776;51.702;7.462;2023-10-08T03:46:43;19.60;99.90
59234;DHT22;60776;51.702;7.462;2023-10-08T03:49:12;19.60;99.90
59234;DHT22;60776;51.702;7.462;2023-10-08T03:51:51;19.50;99.90
59234;DHT22;60776;51.702;7.462;2023-10-08T03:54:21;19.50;99.90
59234;DHT22;60776;51.702;7.462;2023-10-08T03:56:59;19.40;99.90
59234;DHT22;60776;51.702;7.462;2023-10-08T03:59:26;19.40;99.90
59234;DHT22;60776;51.702;7.462;2023-10-08T04:02:01;19.40;99.90
59234;DHT22;60776;51.702;7.462;2023-10-08T04:04:44;19.40;99.90
59234;DHT22;60776;51.702;7.462;2023-10-08T04:07:29;19.40;99.90
59234;DHT22;60776;51.702;7.462;2023-10-08T04:10:32;19.40;99.90
59234;DHT22;60776;51.702;7.462;2023-10-08T04:13:06;19.40;99.90
59234;DHT22;60776;51.702;7.462;2023-10-08T04:15:47;19.40;99.90
59234;DHT22;60776;51.702;7.462;2023-10-08T04:18:15;19.40;99.90
59234;DHT22;60776;51.702;7.462;2023-10-08T04:20:48;19.40;99.90
59234;DHT22;60776;51.702;7.462;2023-10-08T04:23:54;19.40;99.90
59234;DHT22;60776;51.702;7.462;2023-10-08T04:26:23;19.30;99.90
59234;DHT22;60776;51.702;7.462;2023-10-08T04:28:55;19.30;99.90
59234;DHT22;60776;51.702;7.462;2023-10-08T04:31:25;19.30;99.90
59234;DHT22;60776;51.702;7.462;2023-10-08T04:33:56;19.30;99.90
59234;DHT22;60776;51.702;7.462;2023-10-08T04:36:28;19.20;99.90
59234;DHT22;60776;51.702;7.462;2023-10-08T04:39:01;19.20;99.90
59234;DHT22;60776;51.702;7.462;2023-10-08T04:41:47;19.10;99.90
59234;DHT22;60776;51.702;7.462;2023-10-08T04:44:18;19.10;99.90
59234;DHT22;60776;51.702;7.462;2023-10-08T04:46:46;19.10;99.90
59234;DHT22;60776;51.702;7.462;2023-10-08T04:49:21;19.10;99.90
59234;DHT22;60776;51.702;7.462;2023-10-08T04:52:06;19.10;99.90
59234;DHT22;60776;51.702;7.462;2023-10-08T04:54:41;18.90;99.90
59234;DHT22;60776;51.702;7.462;2023-10-08T04:57:12;18.80;99.90
59234;DHT22;60776;51.702;7.462;2023-10-08T04:59:44;18.70;99.90
59234;DHT22;60776;51.702;7.462;2023-10-08T05:02:12;18.60;99.90
59234;DHT22;60776;51.702;7.462;2023-10-08T05:04:44;18.40;99.90
59234;DHT22;60776;51.702;7.462;2023-10-08T05:07:19;18.30;99.90
59234;DHT22;60776;51.702;7.462;2023-10-08T05:10:03;18.30;99.90
59234;DHT22;60776;51.702;7.462;2023-10-08T05:12:29;18.30;99.90
59234;DHT22;60776;51.702;7.462;2023-10-08T05:14:58;18.20;99.90
59234;DHT22;60776;51.702;7.462;2023-10-08T05:17:43;18.10;99.90
59234;DHT22;60776;51.702;7.462;2023-10-08T05:20:32;18.00;99.90
59234;DHT22;60776;51.702;7.462;2023-10-08T05:23:25;18.00;99.90
59234;DHT22;60776;51.702;7.462;2023-10-08T05:25:55;18.00;99.90
59234;DHT22;60776;51.702;7.462;2023-10-08T05:28:27;17.90;99.90
59234;DHT22;60776;51.702;7.462;2023-10-08T05:30:57;17.80;99.90
59234;DHT22;60776;51.702;7.462;2023-10-08T05:33:42;17.50;99.90
59234;DHT22;60776;51.702;7.462;2023-10-08T05:36:26;17.10;99.90
59234;DHT22;60776;51.702;7.462;2023-10-08T05:39:10;16.80;99.90
59234;DHT22;60776;51.702;7.462;2023-10-08T05:42:05;16.70;99.90
59234;DHT22;60776;51.702;7.462;2023-10-08T05:44:57;16.80;99.90
59234;DHT22;60776;51.702;7.462;2023-10-08T05:47:35;16.70;99.90
59234;DHT22;60776;51.702;7.462;2023-10-08T05:50:02;16.60;99.90
59234;DHT22;60776;51.702;7.462;2023-10-08T05:52:44;16.40;99.90
59234;DHT22;60776;51.702;7.462;2023-10-08T05:55:19;16.40;99.90
59234;DHT22;60776;51.702;7.462;2023-10-08T05:57:58;16.40;99.90
59234;DHT22;60776;51.702;7.462;2023-10-08T06:00:44;16.40;99.90
59234;DHT22;60776;51.702;7.462;2023-10-08T06:03:18;16.50;99.90
59234;DHT22;60776;51.702;7.462;2023-10-08T06:06:06;16.50;99.90
59234;DHT22;60776;51.702;7.462;2023-10-08T06:08:51;16.60;99.90
59234;DHT22;60776;51.702;7.462;2023-10-08T06:11:37;16.60;99.90
59234;DHT22;60776;51.702;7.462;2023-10-08T06:14:22;16.60;99.90
59234;DHT22;60776;51.702;7.462;2023-10-08T06:17:07;16.60;99.90
59234;DHT22;60776;51.702;7.462;2023-10-08T06:19:50;16.50;99.90
59234;DHT22;60776;51.702;7.462;2023-10-08T06:22:18;16.50;99.90
59234;DHT22;60776;51.702;7.462;2023-10-08T06:24:44;16.30;99.90
59234;DHT22;60776;51.702;7.462;2023-10-08T06:27:12;16.20;99.90
59234;DHT22;60776;51.702;7.462;2023-10-08T06:29:44;16.10;99.90
59234;DHT22;60776;51.702;7.462;2023-10-08T06:32:18;16.00;99.90
59234;DHT22;60776;51.702;7.462;2023-10-08T06:34:47;16.00;99.90
59234;DHT22;60776;51.702;7.462;2023-10-08T06:37:13;16.10;99.90
59234;DHT22;60776;51.702;7.462;2023-10-08T06:39:41;16.10;99.90
59234;DHT22;60776;51.702;7.462;2023-10-08T06:42:13;16.10;99.90
59234;DHT22;60776;51.702;7.462;2023-10-08T06:44:42;16.00;99.90
59234;DHT22;60776;51.702;7.462;2023-10-08T06:47:12;15.90;99.90
59234;DHT22;60776;51.702;7.462;2023-10-08T06:49:42;15.80;99.90
59234;DHT22;60776;51.702;7.462;2023-10-08T06:52:11;15.80;99.90
59234;DHT22;60776;51.702;7.462;2023-10-08T06:54:47;15.80;99.90
59234;DHT22;60776;51.702;7.462;2023-10-08T06:57:16;15.80;99.90
59234;DHT22;60776;51.702;7.462;2023-10-08T06:59:45;15.80;99.90
59234;DHT22;60776;51.702;7.462;2023-10-08T07:02:11;15.70;99.90
59234;DHT22;60776;51.702;7.462;2023-10-08T07:04:37;15.70;99.90
59234;DHT22;60776;51.702;7.462;2023-10-08T07:07:04;15.60;99.90
59234;DHT22;60776;51.702;7.462;2023-10-08T07:09:37;15.60;99.90
59234;DHT22;60776;51.702;7.462;2023-10-08T07:12:07;15.50;99.90
59234;DHT22;60776;51.702;7.462;2023-10-08T07:14:39;15.60;99.90
59234;DHT22;60776;51.702;7.462;2023-10-08T07:17:14;15.60;99.90
59234;DHT22;60776;51.702;7.462;2023-10-08T07:19:45;15.60;99.90
59234;DHT22;60776;51.702;7.462;2023-10-08T07:22:16;15.50;99.90
59234;DHT22;60776;51.702;7.462;2023-10-08T07:24:47;15.50;99.90
59234;DHT22;60776;51.702;7.462;2023-10-08T07:27:16;15.40;99.90
59234;DHT22;60776;51.702;7.462;2023-10-08T07:29:49;15.40;99.90
59234;DHT22;60776;51.702;7.462;2023-10-08T07:32:17;15.40;99.90
59234;DHT22;60776;51.702;7.462;2023-10-08T07:34:46;15.30;99.90
59234;DHT22;60776;51.702;7.462;2023-10-08T07:37:22;15.10;99.90
59234;DHT22;60776;51.702;7.462;2023-10-08T07:39:57;15.10;99.90
59234;DHT22;60776;51.702;7.462;2023-10-08T07:42:23;15.10;99.90
59234;DHT22;60776;51.702;7.462;2023-10-08T07:44:58;15.10;99.90
59234;DHT22;60776;51.702;7.462;2023-10-08T07:47:32;15.00;99.90
59234;DHT22;60776;51.702;7.462;2023-10-08T07:49:58;15.00;99.90
59234;DHT22;60776;51.702;7.462;2023-10-08T07:52:37;15.00;99.90
59234;DHT22;60776;51.702;7.462;2023-10-08T07:55:03;14.90;99.90
59234;DHT22;60776;51.702;7.462;2023-10-08T07:57:33;14.80;99.90
59234;DHT22;60776;51.702;7.462;2023-10-08T07:59:59;14.70;99.90
59234;DHT22;60776;51.702;7.462;2023-10-08T08:02:48;14.60;99.90
59234;DHT22;60776;51.702;7.462;2023-10-08T08:05:28;14.60;99.90
59234;DHT22;60776;51.702;7.462;2023-10-08T08:07:57;14.70;99.90
59234;DHT22;60776;51.702;7.462;2023-10-08T08:10:31;14.70;99.90
59234;DHT22;60776;51.702;7.462;2023-10-08T08:13:03;14.60;99.90
59234;DHT22;60776;51.702;7.462;2023-10-08T08:15:32;14.60;99.90
59234;DHT22;60776;51.702;7.462;2023-10-08T08:18:05;14.70;99.90
59234;DHT22;60776;51.702;7.462;2023-10-08T08:20:34;14.70;99.90
59234;DHT22;60776;51.702;7.462;2023-10-08T08:23:06;14.60;99.90
59234;DHT22;60776;51.702;7.462;2023-10-08T08:25:40;14.50;99.90
59234;DHT22;60776;51.702;7.462;2023-10-08T08:28:28;14.60;99.90
59234;DHT22;60776;51.702;7.462;2023-10-08T08:30:54;14.70;99.90
59234;DHT22;60776;51.702;7.462;2023-10-08T08:33:21;14.90;99.90
59234;DHT22;60776;51.702;7.462;2023-10-08T08:36:01;14.90;99.90
59234;DHT22;60776;51.702;7.462;2023-10-08T08:38:29;15.00;99.90
59234;DHT22;60776;51.702;7.462;2023-10-08T08:41:04;15.10;99.90
59234;DHT22;60776;51.702;7.462;2023-10-08T08:43:34;15.10;99.90
59234;DHT22;60776;51.702;7.462;2023-10-08T08:46:04;15.20;99.90
59234;DHT22;60776;51.702;7.462;2023-10-08T08:48:36;15.10;99.90
59234;DHT22;60776;51.702;7.462;2023-10-08T08:51:06;15.20;99.90
59234;DHT22;60776;51.702;7.462;2023-10-08T08:53:40;15.40;99.90
59234;DHT22;60776;51.702;7.462;2023-10-08T08:56:09;15.50;99.90
59234;DHT22;60776;51.702;7.462;2023-10-08T08:58:44;15.40;99.90
59234;DHT22;60776;51.702;7.462;2023-10-08T09:01:14;15.40;99.90
59234;DHT22;60776;51.702;7.462;2023-10-08T09:03:43;15.40;99.90
59234;DHT22;60776;51.702;7.462;2023-10-08T09:06:11;15.40;99.90
59234;DHT22;60776;51.702;7.462;2023-10-08T09:08:39;15.50;99.90
59234;DHT22;60776;51.702;7.462;2023-10-08T09:11:17;15.40;99.90
59234;DHT22;60776;51.702;7.462;2023-10-08T09:13:52;15.50;99.90
59234;DHT22;60776;51.702;7.462;2023-10-08T09:16:18;15.70;99.90
59234;DHT22;60776;51.702;7.462;2023-10-08T09:18:47;15.70;99.90
59234;DHT22;60776;51.702;7.462;2023-10-08T09:21:22;15.90;99.90
59234;DHT22;60776;51.702;7.462;2023-10-08T09:23:54;15.80;99.90
59234;DHT22;60776;51.702;7.462;2023-10-08T09:26:25;15.60;99.90
59234;DHT22;60776;51.702;7.462;2023-10-08T09:28:58;15.60;99.90
59234;DHT22;60776;51.702;7.462;2023-10-08T09:31:28;15.50;99.90
59234;DHT22;60776;51.702;7.462;2023-10-08T09:34:00;15.40;99.90
59234;DHT22;60776;51.702;7.462;2023-10-08T09:36:29;15.60;99.90
59234;DHT22;60776;51.702;7.462;2023-10-08T09:39:03;15.70;99.90
59234;DHT22;60776;51.702;7.462;2023-10-08T09:41:33;15.70;99.90
59234;DHT22;60776;51.702;7.462;2023-10-08T09:44:07;15.80;99.90
59234;DHT22;60776;51.702;7.462;2023-10-08T09:46:37;15.90;99.90
59234;DHT22;60776;51.702;7.462;2023-10-08T09:49:13;16.10;99.90
59234;DHT22;60776;51.702;7.462;2023-10-08T09:51:40;16.20;99.90
59234;DHT22;60776;51.702;7.462;2023-10-08T09:56:42;16.30;99.90
59234;DHT22;60776;51.702;7.462;2023-10-08T09:59:13;16.40;99.90
59234;DHT22;60776;51.702;7.462;2023-10-08T10:01:48;16.70;99.90
59234;DHT22;60776;51.702;7.462;2023-10-08T10:04:23;17.10;99.90
59234;DHT22;60776;51.702;7.462;2023-10-08T10:07:09;17.30;99.90
59234;DHT22;60776;51.702;7.462;2023-10-08T10:09:38;17.50;99.90
59234;DHT22;60776;51.702;7.462;2023-10-08T10:12:07;17.40;99.90
59234;DHT22;60776;51.702;7.462;2023-10-08T10:14:42;17.20;99.90
59234;DHT22;60776;51.702;7.462;2023-10-08T10:17:28;17.30;99.90
59234;DHT22;60776;51.702;7.462;2023-10-08T10:19:55;17.20;99.90
59234;DHT22;60776;51.702;7.462;2023-10-08T10:22:39;17.30;99.90
59234;DHT22;60776;51.702;7.462;2023-10-08T10:25:07;17.40;99.90
59234;DHT22;60776;51.702;7.462;2023-10-08T10:30:34;17.60;99.90
59234;DHT22;60776;51.702;7.462;2023-10-08T10:33:02;17.60;99.90
59234;DHT22;60776;51.702;7.462;2023-10-08T10:35:31;17.40;99.90
59234;DHT22;60776;51.702;7.462;2023-10-08T10:37:58;17.10;99.90
59234;DHT22;60776;51.702;7.462;2023-10-08T10:40:29;17.10;99.90
59234;DHT22;60776;51.702;7.462;2023-10-08T10:43:05;17.30;99.90
59234;DHT22;60776;51.702;7.462;2023-10-08T10:45:32;17.70;99.90
59234;DHT22;60776;51.702;7.462;2023-10-08T10:48:05;18.00;99.90
59234;DHT22;60776;51.702;7.462;2023-10-08T10:51:05;18.10;99.90
59234;DHT22;60776;51.702;7.462;2023-10-08T10:53:35;18.30;99.90
59234;DHT22;60776;51.702;7.462;2023-10-08T10:56:38;18.10;99.90
59234;DHT22;60776;51.702;7.462;2023-10-08T10:59:08;18.10;99.90
59234;DHT22;60776;51.702;7.462;2023-10-08T11:02:11;18.20;99.90
59234;DHT22;60776;51.702;7.462;2023-10-08T11:05:14;18.00;99.90
59234;DHT22;60776;51.702;7.462;2023-10-08T11:07:49;17.80;99.90
59234;DHT22;60776;51.702;7.462;2023-10-08T11:10:15;17.90;99.90
59234;DHT22;60776;51.702;7.462;2023-10-08T11:12:43;17.90;99.90
59234;DHT22;60776;51.702;7.462;2023-10-08T11:15:15;18.00;99.90
59234;DHT22;60776;51.702;7.462;2023-10-08T11:17:46;18.10;99.90
59234;DHT22;60776;51.702;7.462;2023-10-08T11:20:33;18.40;99.90
59234;DHT22;60776;51.702;7.462;2023-10-08T11:23:06;18.60;99.90
59234;DHT22;60776;51.702;7.462;2023-10-08T11:25:57;18.70;99.90
59234;DHT22;60776;51.702;7.462;2023-10-08T11:28:30;19.20;99.90
59234;DHT22;60776;51.702;7.462;2023-10-08T11:31:00;19.40;99.90
59234;DHT22;60776;51.702;7.462;2023-10-08T11:33:59;19.80;99.90
59234;DHT22;60776;51.702;7.462;2023-10-08T11:36:28;20.00;99.90
59234;DHT22;60776;51.702;7.462;2023-10-08T11:39:12;19.90;99.90
59234;DHT22;60776;51.702;7.462;2023-10-08T11:42:16;20.10;99.90
59234;DHT22;60776;51.702;7.462;2023-10-08T11:45:05;20.20;99.90
59234;DHT22;60776;51.702;7.462;2023-10-08T11:47:53;20.40;99.90
59234;DHT22;60776;51.702;7.462;2023-10-08T11:50:27;20.10;99.90
59234;DHT22;60776;51.702;7.462;2023-10-08T11:53:00;20.20;99.90
59234;DHT22;60776;51.702;7.462;2023-10-08T11:55:34;20.00;99.70
59234;DHT22;60776;51.702;7.462;2023-10-08T11:58:04;20.30;99.90
59234;DHT22;60776;51.702;7.462;2023-10-08T12:00:39;20.20;98.10
59234;DHT22;60776;51.702;7.462;2023-10-08T12:03:12;20.10;98.10
59234;DHT22;60776;51.702;7.462;2023-10-08T12:05:39;20.10;98.30
59234;DHT22;60776;51.702;7.462;2023-10-08T12:08:13;20.40;98.50
59234;DHT22;60776;51.702;7.462;2023-10-08T12:10:44;20.60;97.30
59234;DHT22;60776;51.702;7.462;2023-10-08T12:13:12;20.60;98.00
59234;DHT22;60776;51.702;7.462;2023-10-08T12:15:37;20.60;96.00
59234;DHT22;60776;51.702;7.462;2023-10-08T12:18:04;20.40;95.20
59234;DHT22;60776;51.702;7.462;2023-10-08T12:21:06;20.10;96.00
59234;DHT22;60776;51.702;7.462;2023-10-08T12:23:38;19.90;96.10
59234;DHT22;60776;51.702;7.462;2023-10-08T12:26:04;19.90;96.00
59234;DHT22;60776;51.702;7.462;2023-10-08T12:28:33;19.80;95.80
59234;DHT22;60776;51.702;7.462;2023-10-08T12:30:59;19.70;95.40
59234;DHT22;60776;51.702;7.462;2023-10-08T12:33:28;19.50;96.00
59234;DHT22;60776;51.702;7.462;2023-10-08T12:36:00;19.70;96.00
59234;DHT22;60776;51.702;7.462;2023-10-08T12:38:36;20.00;96.10
59234;DHT22;60776;51.702;7.462;2023-10-08T12:41:02;20.30;95.40
59234;DHT22;60776;51.702;7.462;2023-10-08T12:43:37;20.30;95.40
59234;DHT22;60776;51.702;7.462;2023-10-08T12:46:06;20.50;95.30
59234;DHT22;60776;51.702;7.462;2023-10-08T12:48:37;20.70;95.10
59234;DHT22;60776;51.702;7.462;2023-10-08T12:51:11;20.40;94.30
59234;DHT22;60776;51.702;7.462;2023-10-08T12:53:39;20.10;93.30
59234;DHT22;60776;51.702;7.462;2023-10-08T12:56:14;20.00;94.20
59234;DHT22;60776;51.702;7.462;2023-10-08T12:58:43;20.20;93.60
59234;DHT22;60776;51.702;7.462;2023-10-08T13:01:14;20.20;93.50
59234;DHT22;60776;51.702;7.462;2023-10-08T13:03:46;20.20;93.50
59234;DHT22;60776;51.702;7.462;2023-10-08T13:06:18;20.40;93.80
59234;DHT22;60776;51.702;7.462;2023-10-08T13:08:51;20.10;93.00
59234;DHT22;60776;51.702;7.462;2023-10-08T13:11:21;20.00;94.10
59234;DHT22;60776;51.702;7.462;2023-10-08T13:13:51;19.70;94.10
59234;DHT22;60776;51.702;7.462;2023-10-08T13:16:26;19.50;94.90
59234;DHT22;60776;51.702;7.462;2023-10-08T13:18:54;19.40;95.40
59234;DHT22;60776;51.702;7.462;2023-10-08T13:21:25;19.10;96.10
59234;DHT22;60776;51.702;7.462;2023-10-08T13:23:59;19.00;96.60
59234;DHT22;60776;51.702;7.462;2023-10-08T13:26:28;19.10;97.50
59234;DHT22;60776;51.702;7.462;2023-10-08T13:29:00;19.10;98.20
59234;DHT22;60776;51.702;7.462;2023-10-08T13:31:31;19.20;98.50
59234;DHT22;60776;51.702;7.462;2023-10-08T13:34:01;19.30;98.70
59234;DHT22;60776;51.702;7.462;2023-10-08T13:36:33;19.40;99.00
59234;DHT22;60776;51.702;7.462;2023-10-08T13:39:07;19.40;98.90
59234;DHT22;60776;51.702;7.462;2023-10-08T13:41:37;19.50;99.20
59234;DHT22;60776;51.702;7.462;2023-10-08T13:44:07;19.60;99.40
59234;DHT22;60776;51.702;7.462;2023-10-08T13:46:37;19.60;99.40
59234;DHT22;60776;51.702;7.462;2023-10-08T13:49:11;19.40;99.90
59234;DHT22;60776;51.702;7.462;2023-10-08T13:51:44;19.30;99.90
59234;DHT22;60776;51.702;7.462;2023-10-08T13:54:12;19.20;99.90
59234;DHT22;60776;51.702;7.462;2023-10-08T13:56:37;19.00;99.90
59234;DHT22;60776;51.702;7.462;2023-10-08T13:59:04;18.80;99.90
59234;DHT22;60776;51.702;7.462;2023-10-08T14:01:49;18.70;99.90
59234;DHT22;60776;51.702;7.462;2023-10-08T14:04:19;18.70;99.90
59234;DHT22;60776;51.702;7.462;2023-10-08T14:06:52;18.80;99.90
59234;DHT22;60776;51.702;7.462;2023-10-08T14:09:22;18.90;99.90
59234;DHT22;60776;51.702;7.462;2023-10-08T14:11:56;19.10;99.90
59234;DHT22;60776;51.702;7.462;2023-10-08T14:14:25;19.10;99.90
59234;DHT22;60776;51.702;7.462;2023-10-08T14:16:55;19.00;99.90
59234;DHT22;60776;51.702;7.462;2023-10-08T14:19:27;19.00;99.90
59234;DHT22;60776;51.702;7.462;2023-10-08T14:22:12;19.00;99.90
59234;DHT22;60776;51.702;7.462;2023-10-08T14:24:45;19.00;99.90
59234;DHT22;60776;51.702;7.462;2023-10-08T14:27:18;19.00;99.90
59234;DHT22;60776;51.702;7.462;2023-10-08T14:29:50;19.00;99.90
59234;DHT22;60776;51.702;7.462;2023-10-08T14:32:19;18.90;99.90
59234;DHT22;60776;51.702;7.462;2023-10-08T14:34:53;18.80;99.90
59234;DHT22;60776;51.702;7.462;2023-10-08T14:37:22;18.80;99.90
59234;DHT22;60776;51.702;7.462;2023-10-08T14:40:09;18.70;99.90
59234;DHT22;60776;51.702;7.462;2023-10-08T14:42:53;18.60;99.90
59234;DHT22;60776;51.702;7.462;2023-10-08T14:45:30;18.40;99.90
59234;DHT22;60776;51.702;7.462;2023-10-08T14:48:01;18.50;99.90
59234;DHT22;60776;51.702;7.462;2023-10-08T14:50:34;18.40;99.90
59234;DHT22;60776;51.702;7.462;2023-10-08T14:53:08;18.50;99.90
59234;DHT22;60776;51.702;7.462;2023-10-08T14:55:36;18.50;99.90
59234;DHT22;60776;51.702;7.462;2023-10-08T14:58:10;18.40;99.90
59234;DHT22;60776;51.702;7.462;2023-10-08T15:00:38;18.30;99.90
59234;DHT22;60776;51.702;7.462;2023-10-08T15:03:04;18.30;99.90
59234;DHT22;60776;51.702;7.462;2023-10-08T15:05:30;18.30;99.90
59234;DHT22;60776;51.702;7.462;2023-10-08T15:07:57;18.40;99.90
59234;DHT22;60776;51.702;7.462;2023-10-08T15:10:22;18.40;99.90
59234;DHT22;60776;51.702;7.462;2023-10-08T15:12:51;18.40;99.90
59234;DHT22;60776;51.702;7.462;2023-10-08T15:15:19;18.30;99.90
59234;DHT22;60776;51.702;7.462;2023-10-08T15:17:55;18.20;99.90
59234;DHT22;60776;51.702;7.462;2023-10-08T15:20:21;18.10;99.90
59234;DHT22;60776;51.702;7.462;2023-10-08T15:23:01;18.00;99.90
59234;DHT22;60776;51.702;7.462;2023-10-08T15:25:26;18.00;99.90
59234;DHT22;60776;51.702;7.462;2023-10-08T15:27:52;17.90;99.90
59234;DHT22;60776;51.702;7.462;2023-10-08T15:30:25;17.90;99.90
59234;DHT22;60776;51.702;7.462;2023-10-08T15:32:53;17.90;99.90
59234;DHT22;60776;51.702;7.462;2023-10-08T15:35:27;17.90;99.90
59234;DHT22;60776;51.702;7.462;2023-10-08T15:37:55;17.90;99.90
59234;DHT22;60776;51.702;7.462;2023-10-08T15:40:30;17.80;99.90
59234;DHT22;60776;51.702;7.462;2023-10-08T15:42:58;17.70;99.90
59234;DHT22;60776;51.702;7.462;2023-10-08T15:45:25;17.70;99.90
59234;DHT22;60776;51.702;7.462;2023-10-08T15:47:51;17.80;99.90
59234;DHT22;60776;51.702;7.462;2023-10-08T15:50:29;17.80;99.90
59234;DHT22;60776;51.702;7.462;2023-10-08T15:53:00;17.70;99.90
59234;DHT22;60776;51.702;7.462;2023-10-08T15:55:31;17.60;99.90
59234;DHT22;60776;51.702;7.462;2023-10-08T15:58:06;17.60;99.90
59234;DHT22;60776;51.702;7.462;2023-10-08T16:00:34;17.60;99.90
59234;DHT22;60776;51.702;7.462;2023-10-08T16:03:05;17.60;99.90
59234;DHT22;60776;51.702;7.462;2023-10-08T16:05:41;17.60;99.90
59234;DHT22;60776;51.702;7.462;2023-10-08T16:08:10;17.60;99.90
59234;DHT22;60776;51.702;7.462;2023-10-08T16:10:38;17.70;99.90
59234;DHT22;60776;51.702;7.462;2023-10-08T16:13:07;17.70;99.90